Thunder radar more information blitzortung!


avis per Snow/Ice more information rain snow radar


Visita la nostra xarxa de llocs de meteo:

Template documentation
and downloads

And another site



Snow/Ice From: 26-02-2018 12:00 Until: 27-02-2018 05:59 warning for: Snow/Ice Level: Yellow info button

Pagina Historial Weather Underground text

Diari Resum January 19, 2018 Unitats:  Mètric    Imperial   Tant
« Previous Dia
SegĂźent Dia »
Diari Setmana Mensual Anual Personalitzada
  Maxima: Minima: Media:
Temperatura: -17.8 °C -15.9 °C -13.5 °C
Punt de rosada: -17.8 °C -18.8 °C -16.9 °C
Humitat: Humidity % 55 % 65 %
Wind Speed: 0 km/h 0 km/h 4.3 km/h
RĂ fegues de vent: 0 km/h - -
Vent:- - SSE
Pression baro: 0 hPa 34428.8 hPa -
Precipitacions: 0 mm    
Historical Graphs
 
 
Dades de taula per January 19, 2018
Temps Temperatura Punt de rosada Pression baro Vent Wind Speed RĂ fegues de vent Humitat Rainfall Rate (Hourly)
-17.8 °C -17.8 °C 0 hPa Calm     Humidity % 0 mm
00:00 -15.6 °C -18.4 °C 34462.7 hPa Calm     69 % 0 mm
00:04 -14.6 °C -18.4 °C 34533.8 hPa SW 6 km/h 6 km/h 61 % 0 mm
00:09 -14.7 °C -18.5 °C 34533.8 hPa WSW 6.3 km/h 6.3 km/h 61 % 0 mm
00:10 -15.6 °C -18.4 °C 34462.7 hPa Calm   5.1 km/h 69 % 0 mm
00:14 -14.7 °C -18.5 °C 34533.8 hPa Calm     61 % 0 mm
00:19 -14.7 °C -18.4 °C 34533.8 hPa Calm     62 % 0 mm
00:20 -15.6 °C -18.4 °C 34462.7 hPa WNW 5.1 km/h 5.1 km/h 69 % 0 mm
00:24 -14.7 °C -18.4 °C 34533.8 hPa WSW 3.7 km/h 3.7 km/h 62 % 0 mm
00:29 -14.7 °C -18.4 °C 34533.8 hPa NNE 3.7 km/h   62 % 0 mm
00:30 -15.7 °C -18.7 °C 34462.7 hPa NW 5.1 km/h 10.3 km/h 68 % 0 mm
00:34 -14.7 °C -18.3 °C 34533.8 hPa Calm     63 % 0 mm
00:39 -14.7 °C -18.3 °C 34533.8 hPa WSW 3.1 km/h   63 % 0 mm
00:40 -15.8 °C -18.7 °C 34462.7 hPa WNW 2.6 km/h 2.6 km/h 69 % 0 mm
00:50 -15.8 °C -18.8 °C 34462.7 hPa WNW 2.6 km/h 5.1 km/h 68 % 0 mm
01:00 -15.8 °C -18.7 °C 34462.7 hPa NW 2.6 km/h 5.1 km/h 69 % 0 mm
01:10 -15.9 °C -18.8 °C 34462.7 hPa Calm   5.1 km/h 69 % 0 mm
01:20 -15.9 °C -18.8 °C 34462.7 hPa WSW 2.6 km/h 7.7 km/h 69 % 0 mm
01:30 -15.7 °C -18.6 °C 34462.7 hPa SW 5.1 km/h 12.9 km/h 69 % 0 mm
01:40 -15.7 °C -18.6 °C 34462.7 hPa NNW 5.1 km/h 7.7 km/h 69 % 0 mm
02:00 -15.7 °C -18.5 °C 34462.7 hPa North 5.1 km/h 5.1 km/h 70 % 0 mm
02:10 -15.8 °C -18.7 °C 34462.7 hPa NNE 2.6 km/h 5.1 km/h 69 % 0 mm
02:20 -15.9 °C -18.8 °C 34462.7 hPa West 2.6 km/h 5.1 km/h 69 % 0 mm
02:30 -15.9 °C -18.8 °C 34462.7 hPa WNW 5.1 km/h 5.1 km/h 69 % 0 mm
02:40 -15.8 °C -18.6 °C 34462.7 hPa Calm   2.6 km/h 70 % 0 mm
02:50 -15.7 °C -18.5 °C 34496.6 hPa NNW 5.1 km/h 7.7 km/h 70 % 0 mm
03:00 -15.6 °C -18.4 °C 34496.6 hPa NNE 2.6 km/h 5.1 km/h 70 % 0 mm
03:10 -15.5 °C -18.3 °C 34496.6 hPa NE 2.6 km/h 7.7 km/h 70 % 0 mm
03:20 -15.4 °C -18.3 °C 34496.6 hPa Calm   5.1 km/h 69 % 0 mm
03:30 -15.5 °C -18.4 °C 34496.6 hPa West 2.6 km/h 5.1 km/h 69 % 0 mm
03:40 -15.4 °C -18.2 °C 34496.6 hPa Calm   5.1 km/h 70 % 0 mm
03:50 -15.3 °C -18.1 °C 34496.6 hPa Calm     70 % 0 mm
04:00 -15.1 °C -17.9 °C 34496.6 hPa NNW 2.6 km/h 7.7 km/h 70 % 0 mm
04:10 -14.9 °C -17.7 °C 34496.6 hPa Calm   5.1 km/h 70 % 0 mm
04:20 -14.9 °C -17.8 °C 34496.6 hPa Calm   5.1 km/h 69 % 0 mm
04:30 -14.8 °C -17.6 °C 34496.6 hPa NNW 2.6 km/h 5.1 km/h 70 % 0 mm
04:40 -14.6 °C -17.6 °C 34496.6 hPa Calm   2.6 km/h 69 % 0 mm
04:50 -14.4 °C -17.4 °C 34496.6 hPa Calm   5.1 km/h 69 % 0 mm
10:58 -14.3 °C -17.3 °C 34496.6 hPa WSW 3.1 km/h   69 % 0 mm
11:03 -14.2 °C -17.2 °C 34496.6 hPa North 3.1 km/h 3.1 km/h 69 % 0 mm
11:08 -14.2 °C -17.1 °C 34496.6 hPa NW 3.1 km/h 3.1 km/h 69 % 0 mm
11:13 -14.1 °C -17.2 °C 34496.6 hPa NNE 6 km/h 6 km/h 68 % 0 mm
11:18 -14.1 °C -17.1 °C 34496.6 hPa NNE 5.6 km/h 5.6 km/h 68 % 0 mm
11:23 -14 °C -17.1 °C 34496.6 hPa NNE 2.3 km/h   68 % 0 mm
11:28 -13.9 °C -17.1 °C 34496.6 hPa NE 3.1 km/h   67 % 0 mm
11:33 -13.9 °C -17.1 °C 34496.6 hPa WNW 6 km/h 6 km/h 67 % 0 mm
11:38 -13.8 °C -16.9 °C 34496.6 hPa NE 3.7 km/h 3.7 km/h 67 % 0 mm
11:43 -13.7 °C -17 °C 34496.6 hPa NE 3.1 km/h   66 % 0 mm
11:48 -13.8 °C -17.1 °C 34496.6 hPa NE 11.9 km/h 11.9 km/h 66 % 0 mm
11:53 -13.8 °C -17.1 °C 34496.6 hPa NE 11.9 km/h 11.9 km/h 66 % 0 mm
11:58 -13.9 °C -17.2 °C 34496.6 hPa NNE 15 km/h 15 km/h 66 % 0 mm
12:03 -13.8 °C -17.1 °C 34496.6 hPa ENE 5.1 km/h 6.3 km/h 66 % 0 mm
12:08 -13.7 °C -17 °C 34496.6 hPa NNE 6 km/h 6 km/h 66 % 0 mm
12:13 -13.7 °C -17.1 °C 34496.6 hPa NNE 11.1 km/h 11.1 km/h 65 % 0 mm
12:18 -13.7 °C -17.1 °C 34496.6 hPa NNE 6 km/h 6 km/h 65 % 0 mm
12:23 -13.7 °C -17.1 °C 34496.6 hPa NNE 6 km/h 6 km/h 65 % 0 mm
12:28 -13.6 °C -17.1 °C 34496.6 hPa WNW 3.7 km/h 3.7 km/h 65 % 0 mm
12:33 -13.6 °C -17 °C 34496.6 hPa NW 6 km/h   65 % 0 mm
12:38 -13.4 °C -16.9 °C 34496.6 hPa WNW 3.1 km/h   65 % 0 mm
12:43 -13.4 °C -16.8 °C 34496.6 hPa WNW 3.1 km/h 3.1 km/h 65 % 0 mm
12:48 -13.4 °C -16.9 °C 34462.7 hPa East 3.1 km/h 3.1 km/h 64 % 0 mm
12:53 -13.3 °C -16.7 °C 34462.7 hPa SW 3.7 km/h 3.7 km/h 65 % 0 mm
12:58 -13.2 °C -16.7 °C 34462.7 hPa North 6 km/h   65 % 0 mm
13:03 -13.3 °C -16.8 °C 34462.7 hPa NE 6.3 km/h 6.3 km/h 64 % 0 mm
13:08 -13.3 °C -16.8 °C 34462.7 hPa WNW 6 km/h 6 km/h 64 % 0 mm
13:13 -13.2 °C -16.8 °C 34462.7 hPa ENE 6 km/h 6 km/h 64 % 0 mm
13:18 -13.2 °C -16.6 °C 34462.7 hPa NNE 3.1 km/h 3.1 km/h 65 % 0 mm
13:23 -13.2 °C -16.8 °C 34462.7 hPa ENE 6 km/h 6 km/h 64 % 0 mm
13:28 -13.3 °C -16.8 °C 34462.7 hPa NE 6.3 km/h 6.3 km/h 64 % 0 mm
13:33 -13.2 °C -16.8 °C 34462.7 hPa NNW 3.1 km/h   64 % 0 mm
13:38 -13.1 °C -16.7 °C 34462.7 hPa ENE 6 km/h 6 km/h 64 % 0 mm
13:43 -12.9 °C -16.5 °C 34462.7 hPa ENE 6 km/h 6 km/h 64 % 0 mm
13:48 -12.8 °C -16.4 °C 34462.7 hPa West 9 km/h 9 km/h 64 % 0 mm
13:53 -12.7 °C -16.2 °C 34462.7 hPa NNW 6 km/h 6 km/h 65 % 0 mm
13:58 -12.6 °C -16 °C 34462.7 hPa WSW 7.6 km/h 7.6 km/h 65 % 0 mm
14:03 -12.4 °C -16.1 °C 34462.7 hPa West 6 km/h 6 km/h 64 % 0 mm
14:08 -12.3 °C -15.9 °C 34462.7 hPa SW 9 km/h 9 km/h 64 % 0 mm
14:13 -12.1 °C -15.7 °C 34462.7 hPa West 3.1 km/h 3.1 km/h 64 % 0 mm
14:18 -12.1 °C -15.8 °C 34462.7 hPa SW 6 km/h 6 km/h 63 % 0 mm
14:23 -12 °C -15.7 °C 34462.7 hPa WNW 3.7 km/h 3.7 km/h 63 % 0 mm
14:28 -12 °C -15.7 °C 34462.7 hPa East 9 km/h 9 km/h 63 % 0 mm
14:33 -11.9 °C -15.7 °C 34462.7 hPa ESE 9.8 km/h 9.8 km/h 63 % 0 mm
14:38 -11.9 °C -15.8 °C 34462.7 hPa ESE 9 km/h 9 km/h 62 % 0 mm
14:43 -11.9 °C -15.8 °C 34462.7 hPa SE 6 km/h 6.3 km/h 62 % 0 mm
14:48 -11.8 °C -15.8 °C 34462.7 hPa SSE 9 km/h 9 km/h 61 % 0 mm
14:53 -11.7 °C -15.6 °C 34462.7 hPa SE 6 km/h 6 km/h 62 % 0 mm
14:58 -11.6 °C -15.6 °C 34462.7 hPa ENE 3.1 km/h 3.1 km/h 61 % 0 mm
15:03 -11.5 °C -15.5 °C 34462.7 hPa ENE 6 km/h 6 km/h 61 % 0 mm
15:08 -11.4 °C -15.4 °C 34462.7 hPa ESE 6 km/h 6 km/h 61 % 0 mm
15:13 -11.4 °C -15.4 °C 34462.7 hPa ESE 9 km/h 9 km/h 61 % 0 mm
15:18 -11.4 °C -15.4 °C 34428.8 hPa ESE 9 km/h 9 km/h 61 % 0 mm
15:23 -11.3 °C -15.5 °C 34428.8 hPa ESE 9 km/h 9 km/h 60 % 0 mm
15:28 -11.3 °C -15.4 °C 34428.8 hPa ENE 6 km/h 6 km/h 60 % 0 mm
15:33 -11.2 °C -15.4 °C 34462.7 hPa ESE 11.9 km/h 11.9 km/h 60 % 0 mm
15:38 -11.2 °C -15.5 °C 34462.7 hPa ESE 11.9 km/h 11.9 km/h 59 % 0 mm
15:43 -11.2 °C -15.3 °C 34462.7 hPa NNE 6 km/h 6 km/h 60 % 0 mm
15:48 -11.1 °C -15.4 °C 34462.7 hPa ESE 9 km/h 9 km/h 59 % 0 mm
15:53 -11.1 °C -15.4 °C 34462.7 hPa ESE 9 km/h 9 km/h 59 % 0 mm
15:58 -11 °C -15.4 °C 34462.7 hPa ESE 9 km/h 9 km/h 58 % 0 mm
16:03 -11 °C -15.4 °C 34462.7 hPa ESE 8 km/h 8 km/h 58 % 0 mm
16:08 -10.9 °C -15.4 °C 34462.7 hPa ESE 11.9 km/h 11.9 km/h 58 % 0 mm
16:13 -11 °C -15.4 °C 34462.7 hPa ESE 11.9 km/h 11.9 km/h 58 % 0 mm
16:18 -11 °C -15.4 °C 34462.7 hPa ESE 15 km/h 15 km/h 58 % 0 mm
16:23 -11 °C -15.6 °C 34462.7 hPa East 11.9 km/h 11.9 km/h 57 % 0 mm
16:28 -11 °C -15.6 °C 34462.7 hPa ESE 7.6 km/h 7.6 km/h 57 % 0 mm
16:33 -11 °C -15.6 °C 34462.7 hPa East 9 km/h 9 km/h 57 % 0 mm
16:38 -10.9 °C -15.6 °C 34462.7 hPa ESE 7.6 km/h 7.6 km/h 57 % 0 mm
16:43 -10.9 °C -15.7 °C 34462.7 hPa East 9 km/h 9 km/h 56 % 0 mm
16:48 -11 °C -15.7 °C 34462.7 hPa East 11.9 km/h 11.9 km/h 56 % 0 mm
16:53 -11 °C -15.7 °C 34462.7 hPa ESE 9 km/h 9.3 km/h 56 % 0 mm
16:58 -11 °C -15.7 °C 34462.7 hPa SE 11.9 km/h 11.9 km/h 56 % 0 mm
17:03 -11 °C -15.9 °C 34462.7 hPa ESE 11.9 km/h 11.9 km/h 55 % 0 mm
17:08 -11.1 °C -15.9 °C 34462.7 hPa ESE 11.9 km/h 11.9 km/h 55 % 0 mm
17:13 -11.1 °C -16 °C 34462.7 hPa East 11.9 km/h 11.9 km/h 55 % 0 mm
17:18 -11.2 °C -16.1 °C 34462.7 hPa East 9.3 km/h 9.3 km/h 55 % 0 mm
17:23 -11.2 °C -16.1 °C 34462.7 hPa ESE 12.7 km/h 12.7 km/h 55 % 0 mm
17:28 -11.3 °C -16.2 °C 34462.7 hPa East 15 km/h 15 km/h 55 % 0 mm
17:33 -11.3 °C -16.2 °C 34462.7 hPa East 15 km/h 15 km/h 55 % 0 mm
17:38 -11.4 °C -16.2 °C 34462.7 hPa East 6.8 km/h 6.8 km/h 56 % 0 mm
17:43 -11.6 °C -16.3 °C 34462.7 hPa ESE 9 km/h 9 km/h 56 % 0 mm
17:48 -11.6 °C -16.3 °C 34462.7 hPa ENE 9 km/h 9 km/h 56 % 0 mm
17:53 -11.7 °C -16.2 °C 34462.7 hPa ESE 9 km/h 9 km/h 57 % 0 mm
17:58 -11.7 °C -16.3 °C 34462.7 hPa NE 6 km/h 6 km/h 57 % 0 mm
18:03 -11.8 °C -16.2 °C 34496.6 hPa North 6 km/h 6 km/h 58 % 0 mm
18:08 -11.8 °C -16.2 °C 34496.6 hPa NE 3.1 km/h 3.7 km/h 58 % 0 mm
18:14 -11.9 °C -16.3 °C 34496.6 hPa North 3.7 km/h   58 % 0 mm
18:19 -12 °C -16.3 °C 34496.6 hPa NNE 3.1 km/h 3.1 km/h 59 % 0 mm
18:24 -12.1 °C -16.3 °C 34496.6 hPa NE 6 km/h 6 km/h 59 % 0 mm
18:29 -12.1 °C -16.3 °C 34496.6 hPa NNE 6.8 km/h 6.8 km/h 59 % 0 mm
18:30 -13.9 °C -16.7 °C 34533.8 hPa West 2.6 km/h 5.1 km/h 71 % 0 mm
18:34 -12.2 °C -16.3 °C 34496.6 hPa NNE 3.1 km/h   60 % 0 mm
18:39 -12.2 °C -16.3 °C 34496.6 hPa NE 3.1 km/h   60 % 0 mm
18:40 -13.9 °C -16.6 °C 34533.8 hPa Calm     71 % 0 mm
18:44 -12.2 °C -16.3 °C 34496.6 hPa ENE 3.1 km/h   60 % 0 mm
18:49 -12.3 °C -16.3 °C 34496.6 hPa Calm     61 % 0 mm
18:50 -13.9 °C -16.7 °C 34567.7 hPa WNW 5.1 km/h 5.1 km/h 71 % 0 mm
18:54 -12.3 °C -16.3 °C 34496.6 hPa Calm     61 % 0 mm
18:59 -12.3 °C -16.3 °C 34496.6 hPa Calm     61 % 0 mm
19:00 -14.1 °C -16.8 °C 34567.7 hPa WSW 5.1 km/h 7.7 km/h 71 % 0 mm
19:04 -12.3 °C -16.3 °C 34496.6 hPa Calm     61 % 0 mm
19:09 -12.3 °C -16.3 °C 34496.6 hPa NE 4.2 km/h 4.2 km/h 61 % 0 mm
19:10 -14.1 °C -16.7 °C 34567.7 hPa West 5.1 km/h 5.1 km/h 72 % 0 mm
19:14 -12.3 °C -16.3 °C 34496.6 hPa Calm     61 % 0 mm
19:19 -12.4 °C -16.3 °C 34496.6 hPa Calm     61 % 0 mm
19:20 -14 °C -16.6 °C 34533.8 hPa Calm   2.6 km/h 72 % 0 mm
19:24 -12.5 °C -16.5 °C 34496.6 hPa NNW 3.7 km/h 3.7 km/h 61 % 0 mm
19:29 -12.6 °C -16.4 °C 34496.6 hPa Calm     62 % 0 mm
19:30 -14 °C -16.6 °C 34533.8 hPa NW 2.6 km/h   72 % 0 mm
19:34 -12.7 °C -16.5 °C 34496.6 hPa WNW 4.2 km/h 4.2 km/h 62 % 0 mm
19:39 -12.8 °C -16.6 °C 34496.6 hPa Calm     62 % 0 mm
19:40 -14.2 °C -16.8 °C 34533.8 hPa Calm   5.1 km/h 72 % 0 mm
19:44 -12.8 °C -16.7 °C 34496.6 hPa WNW 3.1 km/h 3.1 km/h 62 % 0 mm
19:49 -12.9 °C -16.8 °C 34533.8 hPa Calm     62 % 0 mm
19:50 -14.3 °C -17 °C 34567.7 hPa West 2.6 km/h 2.6 km/h 71 % 0 mm
19:54 -13.1 °C -16.9 °C 34533.8 hPa West 6 km/h 6 km/h 62 % 0 mm
19:59 -13.1 °C -16.8 °C 34533.8 hPa West 3.1 km/h 3.1 km/h 63 % 0 mm
20:00 -14.3 °C -16.9 °C 34567.7 hPa Calm   2.6 km/h 72 % 0 mm
20:04 -13 °C -16.7 °C 34496.6 hPa Calm     63 % 0 mm
20:09 -13 °C -16.7 °C 34496.6 hPa Calm     63 % 0 mm
20:10 -14.4 °C -16.9 °C 34567.7 hPa NW 2.6 km/h 2.6 km/h 73 % 0 mm
20:14 -12.9 °C -16.6 °C 34496.6 hPa Calm     63 % 0 mm
20:19 -12.9 °C -16.5 °C 34496.6 hPa Calm     64 % 0 mm
20:20 -14.4 °C -16.9 °C 34567.7 hPa Calm   2.6 km/h 73 % 0 mm
20:24 -12.9 °C -16.5 °C 34496.6 hPa Calm     64 % 0 mm
20:29 -12.9 °C -16.5 °C 34496.6 hPa NNE 5.1 km/h 5.1 km/h 64 % 0 mm
20:30 -14.6 °C -17.2 °C 34567.7 hPa NNE 5.1 km/h 5.1 km/h 72 % 0 mm
20:34 -13.1 °C -16.6 °C 34533.8 hPa NE 5.1 km/h 5.1 km/h 64 % 0 mm
20:39 -13.1 °C -16.7 °C 34533.8 hPa NE 3.7 km/h 3.7 km/h 64 % 0 mm
20:40 -14.6 °C -17.2 °C 34567.7 hPa Calm   2.6 km/h 72 % 0 mm
20:44 -13.2 °C -16.7 °C 34533.8 hPa Calm     64 % 0 mm
20:49 -13.2 °C -16.7 °C 34533.8 hPa Calm     65 % 0 mm
20:50 -14.7 °C -17.4 °C 34567.7 hPa Calm     71 % 0 mm
20:54 -13.3 °C -16.7 °C 34533.8 hPa Calm     65 % 0 mm
20:59 -13.3 °C -16.7 °C 34533.8 hPa Calm     65 % 0 mm
21:00 -14.9 °C -17.6 °C 34567.7 hPa Calm     71 % 0 mm
21:04 -13.4 °C -16.8 °C 34533.8 hPa Calm     65 % 0 mm
21:09 -13.4 °C -16.9 °C 34533.8 hPa Calm     65 % 0 mm
21:10 -14.9 °C -17.6 °C 34567.7 hPa Calm     71 % 0 mm
21:14 -13.6 °C -16.8 °C 34533.8 hPa Calm     66 % 0 mm
21:19 -13.7 °C -17 °C 34496.6 hPa NE 3.1 km/h   66 % 0 mm
21:20 -15.1 °C -17.7 °C 34567.7 hPa Calm   2.6 km/h 72 % 0 mm
21:24 -13.7 °C -16.8 °C 34496.6 hPa East 3.1 km/h   67 % 0 mm
21:29 -13.8 °C -17.1 °C 34496.6 hPa SSW 3.7 km/h   66 % 0 mm
21:30 -15.1 °C -17.7 °C 34567.7 hPa Calm   2.6 km/h 72 % 0 mm
21:34 -13.9 °C -17.1 °C 34533.8 hPa SSW 3.1 km/h   67 % 0 mm
21:39 -13.9 °C -17.2 °C 34533.8 hPa Calm     66 % 0 mm
21:40 -15.1 °C -17.7 °C 34567.7 hPa Calm   5.1 km/h 72 % 0 mm
21:44 -14 °C -17.2 °C 34533.8 hPa WSW 5.6 km/h 5.6 km/h 67 % 0 mm
21:49 -14.1 °C -17.2 °C 34496.6 hPa WSW 3.1 km/h   67 % 0 mm
21:50 -15.1 °C -17.7 °C 34567.7 hPa Calm     72 % 0 mm
21:54 -14.1 °C -17.2 °C 34496.6 hPa Calm     68 % 0 mm
21:59 -14.2 °C -17.2 °C 34496.6 hPa Calm     68 % 0 mm
22:00 -15 °C -17.7 °C 34567.7 hPa WNW 2.6 km/h 5.1 km/h 71 % 0 mm
22:04 -14.2 °C -17.4 °C 34533.8 hPa WSW 2.3 km/h   67 % 0 mm
22:09 -14.2 °C -17.3 °C 34533.8 hPa Calm     68 % 0 mm
22:10 -15 °C -17.7 °C 34567.7 hPa WNW 5.1 km/h 7.7 km/h 71 % 0 mm
22:14 -14.2 °C -17.3 °C 34533.8 hPa Calm     68 % 0 mm
22:19 -14.3 °C -17.2 °C 34567.7 hPa Calm     69 % 0 mm
22:20 -14.9 °C -17.6 °C 34567.7 hPa NW 7.7 km/h 10.3 km/h 71 % 0 mm
22:24 -14.3 °C -17.2 °C 34567.7 hPa Calm     69 % 0 mm
22:29 -14.2 °C -17.2 °C 34567.7 hPa WNW 6 km/h 6 km/h 69 % 0 mm
22:30 -15 °C -17.7 °C 34567.7 hPa North 7.7 km/h 7.7 km/h 71 % 0 mm
22:34 -14.1 °C -17.1 °C 34567.7 hPa Calm     69 % 0 mm
22:39 -14.1 °C -16.9 °C 34567.7 hPa Calm     70 % 0 mm
22:40 -15 °C -17.8 °C 34567.7 hPa Calm   10.3 km/h 70 % 0 mm
22:44 -14 °C -16.8 °C 34567.7 hPa NNE 6 km/h 6 km/h 70 % 0 mm
22:49 -13.9 °C -16.8 °C 34567.7 hPa ENE 5.1 km/h 5.1 km/h 70 % 0 mm
22:50 -15.1 °C -17.9 °C 34533.8 hPa Calm   5.1 km/h 70 % 0 mm
22:54 -14 °C -16.7 °C 34567.7 hPa East 3.1 km/h   71 % 0 mm
22:59 -14.1 °C -16.9 °C 34567.7 hPa ENE 5.6 km/h 5.6 km/h 70 % 0 mm
23:00 -15.2 °C -17.8 °C 34533.8 hPa NNW 2.6 km/h 5.1 km/h 71 % 0 mm
23:04 -14.2 °C -17 °C 34567.7 hPa SW 6 km/h 6 km/h 70 % 0 mm
23:09 -14.3 °C -17.1 °C 34567.7 hPa ESE 6 km/h 6 km/h 70 % 0 mm
23:10 -15.4 °C -18.2 °C 34567.7 hPa NW 2.6 km/h 7.7 km/h 70 % 0 mm
23:14 -14.3 °C -17.1 °C 34567.7 hPa SW 6 km/h   70 % 0 mm
23:19 -14.3 °C -17.1 °C 34567.7 hPa Calm     70 % 0 mm
23:20 -15.2 °C -17.8 °C 34567.7 hPa NW 2.6 km/h 5.1 km/h 71 % 0 mm
23:24 -14.3 °C -17 °C 34567.7 hPa Calm     71 % 0 mm
23:29 -14.3 °C -17.1 °C 34567.7 hPa SW 6 km/h 6 km/h 70 % 0 mm
23:30 -15.1 °C -17.6 °C 34567.7 hPa NNE 2.6 km/h 5.1 km/h 72 % 0 mm
23:34 -14.3 °C -17.2 °C 34567.7 hPa SW 6 km/h 6 km/h 70 % 0 mm
23:39 -14.3 °C -17.2 °C 34567.7 hPa SW 6 km/h 6 km/h 70 % 0 mm
23:40 -15.1 °C -17.7 °C 34567.7 hPa NE 2.6 km/h 5.1 km/h 71 % 0 mm
23:44 -14.2 °C -16.9 °C 34567.7 hPa SW 6 km/h 6 km/h 71 % 0 mm
23:49 -14.2 °C -17 °C 34533.8 hPa WSW 6 km/h 6 km/h 70 % 0 mm
23:50 -15.2 °C -17.8 °C 34567.7 hPa NNE 2.6 km/h 7.7 km/h 71 % 0 mm
23:54 -14.2 °C -16.9 °C 34533.8 hPa WSW 6 km/h 6 km/h 71 % 0 mm
23:59 -14.1 °C -16.8 °C 34533.8 hPa SW 6 km/h   71 % 0 mm
Meteo Sesrovires
Elogis d' Weather Underground - 3.75 mb

Guio original per  Jim McMurry - jmcmurry@mwt.net Adaptat per a la plantilla per  Wim van der Kuil - Leuven-Template.eu

Trobareu la nostra informacio del temps tambe a:

Weather Underground

AWEKAS